Time;durP1;ratioP1;P1;durP2;ratioP2;P2;SDS_P1;SDS_P2;PMS_P1;PMS_P2;Temp;Humidity;BMP_temperature;BMP_pressure;BME280_temperature;BME280_humidity;BME280_pressure;Samples;Min_cycle;Max_cycle;Signal;HPM_P1;HPM_P2
2020/12/14 00:01:29;;;;;;;13.88;5.60;;;;;;;3.25;77.59;99499.84;4860252;29;20056;-72
2020/12/14 00:03:57;;;;;;;12.48;5.50;;;;;;;3.24;78.17;99497.25;4860337;29;20140;-72
2020/12/14 00:06:40;;;;;;;12.68;5.63;;;;;;;3.27;77.62;99503.25;4860146;29;20041;-72
2020/12/14 00:09:09;;;;;;;14.85;5.85;;;;;;;3.28;77.96;99504.97;4823596;29;20054;-72
2020/12/14 00:11:36;;;;;;;13.40;5.93;;;;;;;3.27;77.88;99509.94;4823494;29;20054;-72
2020/12/14 00:14:07;;;;;;;10.50;5.43;;;;;;;3.26;77.92;99510.78;4823276;29;20050;-72
2020/12/14 00:16:35;;;;;;;11.82;5.97;;;;;;;3.19;77.65;99498.84;4823445;29;20054;-72
2020/12/14 00:19:03;;;;;;;16.33;6.40;;;;;;;3.21;78.30;99509.81;4823374;29;20043;-72
2020/12/14 00:21:31;;;;;;;11.73;5.72;;;;;;;3.21;78.31;99517.38;4843119;29;20055;-72
2020/12/14 00:23:59;;;;;;;14.50;6.38;;;;;;;3.10;78.90;99501.09;4859634;29;20049;-72
2020/12/14 00:26:27;;;;;;;14.55;5.80;;;;;;;3.04;78.46;99493.38;4859886;29;20053;-72
2020/12/14 00:28:55;;;;;;;12.88;6.07;;;;;;;3.25;78.57;99524.19;4859759;29;20057;-72
2020/12/14 00:31:23;;;;;;;12.93;6.35;;;;;;;2.89;78.87;99477.84;4859788;29;20133;-72
2020/12/14 00:33:50;;;;;;;12.25;5.82;;;;;;;3.16;78.20;99524.81;4859832;29;20038;-72
2020/12/14 00:36:18;;;;;;;14.43;5.85;;;;;;;2.77;78.17;99457.38;4859507;29;20045;-72
2020/12/14 00:39:07;;;;;;;13.82;6.47;;;;;;;3.20;78.26;99528.25;4841310;29;20049;-72
2020/12/14 00:41:35;;;;;;;13.10;6.32;;;;;;;3.24;78.41;99537.59;4841159;29;20098;-72
2020/12/14 00:44:02;;;;;;;14.75;7.15;;;;;;;3.15;78.54;99533.19;4841242;29;20042;-72
2020/12/14 00:46:30;;;;;;;12.38;6.28;;;;;;;3.21;78.80;99542.59;4873474;29;20088;-72
2020/12/14 00:48:58;;;;;;;14.02;6.38;;;;;;;3.19;78.86;99541.69;4896602;29;20105;-72
2020/12/14 00:51:26;;;;;;;14.07;6.57;;;;;;;3.22;78.51;99559.41;4896917;29;20041;-72
2020/12/14 00:53:54;;;;;;;11.70;6.35;;;;;;;3.25;78.34;99564.53;4896517;29;20037;-72
2020/12/14 00:56:23;;;;;;;12.73;5.70;;;;;;;3.26;78.21;99566.25;4896655;29;20041;-72
2020/12/14 00:58:51;;;;;;;11.70;5.90;;;;;;;3.18;78.08;99558.47;4896289;29;20152;-72
2020/12/14 01:01:19;;;;;;;13.02;5.50;;;;;;;3.25;77.67;99569.56;4896460;29;20619;-72
2020/12/14 01:03:46;;;;;;;12.18;6.25;;;;;;;3.23;77.80;99561.13;4896690;29;20511;-72
2020/12/14 01:06:14;;;;;;;12.65;6.18;;;;;;;3.23;77.73;99566.16;4896539;29;20040;-72
2020/12/14 01:08:42;;;;;;;13.65;6.18;;;;;;;3.19;78.48;99564.38;4896287;29;20056;-72
2020/12/14 01:11:09;;;;;;;12.35;6.10;;;;;;;3.24;78.02;99575.41;4896460;29;20108;-72
2020/12/14 01:13:38;;;;;;;14.32;6.28;;;;;;;3.17;77.69;99555.91;4896342;29;20049;-72
2020/12/14 01:16:07;;;;;;;12.15;5.20;;;;;;;3.17;78.25;99560.94;4897398;29;20052;-72
2020/12/14 01:18:36;;;;;;;10.88;5.35;;;;;;;3.16;78.15;99554.22;4898515;29;20128;-72
2020/12/14 01:21:07;;;;;;;13.03;5.90;;;;;;;3.19;78.00;99565.22;4898322;29;20052;-72
2020/12/14 01:23:34;;;;;;;14.05;6.43;;;;;;;3.16;78.67;99552.56;4898485;29;20069;-72
2020/12/14 01:26:02;;;;;;;14.13;5.65;;;;;;;3.17;78.83;99560.94;4898493;29;20515;-72
2020/12/14 01:28:30;;;;;;;12.32;6.20;;;;;;;3.13;78.54;99569.25;4898404;29;20068;-72
2020/12/14 01:31:01;;;;;;;;;;;;;;;3.18;78.01;99578.66;4899023;29;20075;-72
2020/12/14 01:33:29;;;;;;;11.80;5.65;;;;;;;3.19;78.27;99584.56;4898496;29;20377;-72
2020/12/14 01:36:02;;;;;;;11.45;5.72;;;;;;;3.18;78.24;99577.78;4900158;29;20053;-72
2020/12/14 01:38:29;;;;;;;12.85;6.65;;;;;;;3.17;78.39;99584.50;4901943;29;20049;-72
2020/12/14 01:40:57;;;;;;;11.60;5.28;;;;;;;3.10;78.60;99574.19;4902045;29;20049;-72
2020/12/14 01:43:25;;;;;;;14.90;6.38;;;;;;;3.11;77.73;99570.88;4901950;29;20049;-72
2020/12/14 01:45:53;;;;;;;12.27;6.07;;;;;;;3.06;78.37;99572.41;4901921;29;20053;-72
2020/12/14 01:48:22;;;;;;;12.88;6.07;;;;;;;3.05;78.55;99580.78;4901904;29;20044;-72
2020/12/14 01:50:51;;;;;;;12.80;6.03;;;;;;;2.97;78.33;99567.13;4901933;29;20495;-72
2020/12/14 01:53:19;;;;;;;13.88;6.00;;;;;;;3.05;79.16;99585.81;4901725;29;20036;-72
2020/12/14 01:55:48;;;;;;;11.63;5.88;;;;;;;3.09;79.09;99585.97;4901796;29;20522;-72
2020/12/14 01:58:18;;;;;;;11.00;5.55;;;;;;;3.09;79.08;99592.69;4900564;29;20467;-72
2020/12/14 02:00:46;;;;;;;14.45;6.68;;;;;;;3.03;78.35;99582.41;4901592;29;20057;-72
2020/12/14 02:03:13;;;;;;;10.93;5.55;;;;;;;3.04;79.29;99590.03;4901665;29;20064;-72
2020/12/14 02:05:42;;;;;;;12.10;5.75;;;;;;;2.93;78.92;99575.44;4901495;29;20048;-72
2020/12/14 02:08:10;;;;;;;11.70;5.60;;;;;;;2.98;79.07;99583.94;4901574;29;20052;-72
2020/12/14 02:10:37;;;;;;;11.65;6.05;;;;;;;3.01;78.97;99584.03;4901483;29;20056;-72
2020/12/14 02:13:05;;;;;;;13.70;6.35;;;;;;;2.99;78.56;99593.22;4901444;29;20080;-72
2020/12/14 02:15:32;;;;;;;13.07;6.38;;;;;;;3.11;78.63;99606.16;4901301;29;20041;-72
2020/12/14 02:18:00;;;;;;;15.02;6.32;;;;;;;3.12;78.50;99598.63;4901406;29;20041;-72
2020/12/14 02:20:28;;;;;;;12.75;6.43;;;;;;;3.10;79.18;99599.41;4901330;29;20048;-72
2020/12/14 02:22:57;;;;;;;15.98;6.95;;;;;;;2.99;79.26;99573.06;4901224;29;20093;-72
2020/12/14 02:25:26;;;;;;;11.73;5.70;;;;;;;3.02;78.61;99581.59;4901553;29;20075;-72
2020/12/14 02:27:54;;;;;;;13.55;6.75;;;;;;;3.13;79.31;99599.50;4901121;29;20053;-72
2020/12/14 02:30:22;;;;;;;13.18;6.28;;;;;;;3.07;79.16;99596.81;4901180;29;20052;-72
2020/12/14 02:32:50;;;;;;;12.32;6.07;;;;;;;3.10;79.31;99591.84;4900984;29;20044;-72
2020/12/14 02:35:19;;;;;;;12.75;6.07;;;;;;;3.13;78.34;99589.41;4901134;29;20051;-72
2020/12/14 02:37:46;;;;;;;16.98;7.45;;;;;;;3.06;78.60;99595.09;4900921;29;20045;-72
2020/12/14 02:40:14;;;;;;;12.77;6.45;;;;;;;3.04;79.38;99594.22;4901296;29;20431;-72
2020/12/14 02:42:42;;;;;;;14.13;7.20;;;;;;;2.96;79.05;99583.91;4900798;29;20044;-72
2020/12/14 02:45:12;;;;;;;14.68;6.63;;;;;;;3.05;79.49;99600.94;4900963;29;20522;-72
2020/12/14 02:47:39;;;;;;;15.95;7.50;;;;;;;3.05;78.97;99591.72;4900827;29;20499;-72
2020/12/14 02:50:07;;;;;;;15.98;7.53;;;;;;;2.95;78.43;99578.84;4900738;29;20041;-72
2020/12/14 02:52:35;;;;;;;12.07;6.43;;;;;;;2.99;78.20;99593.22;4900780;29;20127;-72
2020/12/14 02:55:06;;;;;;;15.57;7.30;;;;;;;2.98;78.35;99589.00;4900526;29;20044;-72
2020/12/14 02:57:35;;;;;;;15.18;7.03;;;;;;;2.36;78.21;99489.84;4900715;29;20063;-72
2020/12/14 03:00:04;;;;;;;15.32;7.03;;;;;;;2.94;78.79;99579.66;4900380;29;20076;-72
2020/12/14 03:02:32;;;;;;;;;;;;;;;3.03;77.89;99598.41;4901073;29;20064;-72
2020/12/14 03:04:59;;;;;;;15.40;7.47;;;;;;;3.03;77.71;99602.56;4900824;29;19923;-72
2020/12/14 03:07:27;;;;;;;17.05;7.38;;;;;;;3.00;78.06;99602.50;4900473;29;20044;-72
2020/12/14 03:09:55;;;;;;;15.50;7.05;;;;;;;2.99;78.16;99598.28;4900456;29;20567;-72
2020/12/14 03:12:24;;;;;;;16.93;8.17;;;;;;;3.01;77.55;99602.53;4900452;29;20495;-72
2020/12/14 03:14:54;;;;;;;16.83;7.43;;;;;;;3.00;77.73;99600.00;4900374;29;20499;-72
2020/12/14 03:17:22;;;;;;;14.35;7.47;;;;;;;2.97;77.64;99602.41;4900571;29;20071;-72
2020/12/14 03:19:53;;;;;;;15.75;7.45;;;;;;;2.96;77.95;99600.69;4900379;29;20506;-72
2020/12/14 03:22:20;;;;;;;17.00;7.65;;;;;;;3.00;78.37;99607.56;4900256;29;20044;-72
2020/12/14 03:24:48;;;;;;;21.50;8.27;;;;;;;3.04;78.19;99606.81;4900123;29;20559;-72
2020/12/14 03:27:18;;;;;;;16.90;7.93;;;;;;;3.02;77.56;99610.97;4900256;29;20068;-72
2020/12/14 03:29:46;;;;;;;18.50;8.40;;;;;;;2.94;77.48;99598.16;4900091;29;20048;-72
2020/12/14 03:32:13;;;;;;;15.77;7.35;;;;;;;2.96;77.65;99600.69;4900008;29;20495;-72
2020/12/14 03:34:42;;;;;;;16.55;7.65;;;;;;;2.87;77.92;99585.31;4899957;29;20040;-72
2020/12/14 03:37:13;;;;;;;14.98;6.53;;;;;;;2.96;78.54;99600.69;4898757;29;20041;-72
2020/12/14 03:39:41;;;;;;;17.67;7.93;;;;;;;2.94;77.99;99607.38;4900020;29;20056;-72
2020/12/14 03:42:09;;;;;;;18.35;7.72;;;;;;;2.92;77.90;99614.03;4899736;29;20052;-72
2020/12/14 03:44:37;;;;;;;17.33;8.02;;;;;;;2.94;78.53;99617.44;4899868;29;20052;-72
2020/12/14 03:47:19;;;;;;;20.08;8.02;;;;;;;2.93;77.77;99623.31;4899724;29;20104;-72
2020/12/14 03:49:49;;;;;;;14.82;7.75;;;;;;;2.82;78.16;99607.03;4823964;29;20050;-72
2020/12/14 03:52:17;;;;;;;19.07;8.47;;;;;;;2.96;77.77;99641.03;4824021;29;20051;-72
2020/12/14 03:54:45;;;;;;;17.00;7.45;;;;;;;3.03;78.13;99640.38;4823718;29;20042;-72
2020/12/14 03:57:13;;;;;;;16.42;7.47;;;;;;;3.01;77.47;99644.53;4823773;29;20058;-72
2020/12/14 03:59:40;;;;;;;17.58;7.93;;;;;;;3.06;77.63;99648.03;4822933;29;20549;-72
2020/12/14 04:02:08;;;;;;;15.82;7.43;;;;;;;3.06;77.60;99653.94;4823704;29;20566;-72
2020/12/14 04:04:36;;;;;;;15.95;7.57;;;;;;;3.10;78.07;99659.91;4823865;29;20050;-72
2020/12/14 04:07:04;;;;;;;17.05;7.38;;;;;;;2.95;78.34;99634.28;4823562;29;20094;-72
2020/12/14 04:09:32;;;;;;;15.63;7.35;;;;;;;3.01;77.84;99659.66;4823622;29;20137;-72
2020/12/14 04:12:00;;;;;;;16.85;7.78;;;;;;;3.04;77.87;99652.19;4823518;29;20430;-72
2020/12/14 04:14:28;;;;;;;14.80;6.75;;;;;;;3.03;78.43;99658.03;4823397;29;20057;-72
2020/12/14 04:16:55;;;;;;;16.05;7.78;;;;;;;2.91;78.82;99637.50;4823515;29;20046;-72
2020/12/14 04:19:23;;;;;;;19.35;8.25;;;;;;;3.06;78.19;99668.22;4823318;29;20039;-72
2020/12/14 04:21:51;;;;;;;19.02;8.10;;;;;;;3.03;78.31;99668.13;4823414;29;20082;-72
2020/12/14 04:24:21;;;;;;;17.40;7.93;;;;;;;3.00;78.88;99666.34;4823338;29;20566;-72
2020/12/14 04:26:52;;;;;;;17.92;8.05;;;;;;;2.92;78.40;99667.81;4856288;29;20507;-72
2020/12/14 04:29:21;;;;;;;18.58;7.75;;;;;;;2.82;79.17;99662.47;4899051;29;20107;-72
2020/12/14 04:31:50;;;;;;;16.45;8.02;;;;;;;2.95;79.58;99687.22;4898992;29;20060;-72
2020/12/14 04:34:18;;;;;;;17.85;8.43;;;;;;;2.96;79.54;99699.84;4899223;29;20052;-72
2020/12/14 04:36:47;;;;;;;16.38;7.65;;;;;;;2.65;79.01;99642.66;4898889;29;20060;-72
2020/12/14 04:39:15;;;;;;;19.63;8.13;;;;;;;2.99;79.45;99709.19;4898853;29;20071;-72
2020/12/14 04:41:43;;;;;;;18.25;8.02;;;;;;;2.83;79.15;99674.25;4898865;29;20414;-72
2020/12/14 04:44:12;;;;;;;21.30;8.50;;;;;;;2.95;79.85;99702.34;4898694;29;20067;-72
2020/12/14 04:46:41;;;;;;;22.65;8.88;;;;;;;2.81;79.39;99683.44;4898789;29;20131;-72
2020/12/14 04:49:09;;;;;;;13.75;6.60;;;;;;;2.93;79.93;99696.41;4898669;29;20384;-72
2020/12/14 04:51:37;;;;;;;17.73;8.40;;;;;;;2.96;79.23;99716.63;4898762;29;20518;-72
2020/12/14 04:54:05;;;;;;;17.67;7.60;;;;;;;2.81;79.54;99691.00;4898798;29;20048;-72
2020/12/14 04:56:37;;;;;;;19.45;8.68;;;;;;;2.69;79.66;99681.38;4898596;29;20079;-72
2020/12/14 04:59:08;;;;;;;20.17;8.70;;;;;;;2.82;79.70;99700.25;4898442;29;20045;-72
2020/12/14 05:01:35;;;;;;;17.92;8.35;;;;;;;2.79;79.50;99707.72;4898625;29;20499;-72
2020/12/14 05:04:06;;;;;;;19.55;8.88;;;;;;;2.92;79.21;99724.94;4898695;29;20135;-72
2020/12/14 05:06:40;;;;;;;20.10;8.80;;;;;;;2.95;78.85;99730.06;4898709;29;20064;-72
2020/12/14 05:09:16;;;;;;;20.17;8.95;;;;;;;2.77;78.57;99709.34;4898468;29;20048;-72
2020/12/14 05:11:43;;;;;;;19.80;9.52;;;;;;;2.84;79.04;99726.34;4897928;29;20048;-72
2020/12/14 05:14:13;;;;;;;18.10;8.45;;;;;;;2.68;78.66;99710.78;4898428;29;20044;-72
2020/12/14 05:16:40;;;;;;;20.90;8.35;;;;;;;2.78;78.21;99731.22;4898355;29;20056;-72
2020/12/14 05:19:14;;;;;;;19.73;8.55;;;;;;;2.78;78.68;99731.22;4898462;29;20051;-72
2020/12/14 05:21:46;;;;;;;17.92;8.75;;;;;;;2.38;78.47;99672.03;4897134;29;20060;-72
2020/12/14 05:24:21;;;;;;;18.88;8.43;;;;;;;2.79;78.72;99737.94;4898483;29;20060;-72
2020/12/14 05:26:49;;;;;;;20.80;8.75;;;;;;;2.64;78.14;99734.16;4898404;29;20045;-72
2020/12/14 05:29:19;;;;;;;20.55;9.00;;;;;;;2.54;79.18;99744.75;4898281;29;20052;-72
2020/12/14 05:32:00;;;;;;;18.00;8.40;;;;;;;2.46;78.81;99743.66;4898448;29;20064;-72
2020/12/14 05:34:30;;;;;;;17.02;8.25;;;;;;;2.09;78.85;99690.38;4898495;29;20411;-72
2020/12/14 05:36:58;;;;;;;22.05;9.13;;;;;;;2.44;79.13;99755.34;4898357;29;20135;-72
2020/12/14 05:39:27;;;;;;;18.92;8.30;;;;;;;2.59;79.08;99785.22;4898131;29;20053;-72
2020/12/14 05:41:57;;;;;;;17.73;8.10;;;;;;;2.39;79.97;99761.91;4898268;29;20100;-72
2020/12/14 05:44:28;;;;;;;17.98;8.25;;;;;;;2.64;79.42;99783.66;4898220;29;20064;-72
2020/12/14 05:46:56;;;;;;;19.55;8.88;;;;;;;2.45;79.31;99769.63;4898559;29;20096;-72
2020/12/14 05:49:23;;;;;;;16.67;8.60;;;;;;;2.08;80.08;99738.16;4898161;29;20487;-72
2020/12/14 05:51:51;;;;;;;19.02;7.65;;;;;;;2.34;79.59;99795.28;4898158;29;20047;-72
2020/12/14 05:54:19;;;;;;;15.57;7.60;;;;;;;2.38;79.97;99808.00;4898386;29;20071;-72
2020/12/14 05:56:48;;;;;;;19.90;9.02;;;;;;;2.42;80.28;99804.81;4898122;29;20040;-72
2020/12/14 05:59:15;;;;;;;17.98;8.25;;;;;;;2.33;80.28;99791.88;4897849;29;20096;-72
2020/12/14 06:01:45;;;;;;;20.50;9.07;;;;;;;2.23;80.47;99789.03;4898022;29;20056;-72
2020/12/14 06:04:12;;;;;;;21.65;9.55;;;;;;;2.30;80.55;99804.41;4912589;29;20062;-71
2020/12/14 06:06:46;;;;;;;21.98;8.88;;;;;;;2.31;80.58;99806.09;4896895;29;20522;-71
2020/12/14 06:09:20;;;;;;;21.75;9.50;;;;;;;2.16;79.91;99803.06;4898116;29;20132;-72
2020/12/14 06:11:52;;;;;;;19.63;8.98;;;;;;;2.00;80.57;99810.88;4898049;29;20538;-72
2020/12/14 06:14:20;;;;;;;21.30;9.65;;;;;;;1.80;80.44;99816.88;4898183;29;20048;-72
2020/12/14 06:16:49;;;;;;;21.55;10.18;;;;;;;1.64;80.91;99785.28;4897877;29;20112;-71
2020/12/14 06:19:20;;;;;;;20.00;10.23;;;;;;;1.83;81.21;99812.81;4897935;29;20095;-72
2020/12/14 06:21:55;;;;;;;19.67;8.90;;;;;;;1.77;81.44;99811.75;4899310;29;20108;-72
2020/12/14 06:24:24;;;;;;;16.80;8.15;;;;;;;1.66;80.88;99801.28;4901321;29;20105;-72
2020/12/14 06:26:51;;;;;;;19.17;8.98;;;;;;;1.67;80.93;99829.81;4901281;29;20044;-72
2020/12/14 06:29:34;;;;;;;19.77;8.65;;;;;;;1.56;81.58;99834.44;4901171;29;20040;-72
2020/12/14 06:32:02;;;;;;;19.88;9.98;;;;;;;1.41;81.72;99830.50;4901217;29;20044;-72
2020/12/14 06:34:37;;;;;;;20.17;9.93;;;;;;;1.49;81.39;99832.50;4901099;29;20499;-72
2020/12/14 06:37:06;;;;;;;20.35;9.68;;;;;;;1.35;81.44;99814.38;4901111;29;20056;-72
2020/12/14 06:39:34;;;;;;;25.63;10.68;;;;;;;1.44;81.38;99838.16;4901064;29;20036;-71
2020/12/14 06:42:11;;;;;;;25.38;12.13;;;;;;;1.41;81.44;99835.53;4901103;29;20415;-71
2020/12/14 06:45:07;;;;;;;30.98;15.45;;;;;;;1.33;81.72;99833.59;4900843;29;20104;-71
2020/12/14 06:47:41;;;;;;;30.98;14.05;;;;;;;1.32;81.96;99841.91;4901022;29;20060;-71
2020/12/14 06:50:14;;;;;;;22.13;10.80;;;;;;;1.24;81.65;99840.78;4900872;29;20049;-72
2020/12/14 06:52:43;;;;;;;25.67;12.15;;;;;;;1.27;82.01;99832.50;4900876;29;20076;-72
2020/12/14 06:55:10;;;;;;;25.20;11.10;;;;;;;1.29;81.44;99831.75;4900709;29;20049;-72
2020/12/14 06:57:38;;;;;;;22.05;10.15;;;;;;;1.30;81.71;99820.03;4900670;29;20076;-71
2020/12/14 07:00:06;;;;;;;22.33;9.18;;;;;;;1.48;81.38;99832.44;4900527;29;20143;-72
2020/12/14 07:02:35;;;;;;;18.88;9.02;;;;;;;1.78;81.31;99833.56;4900565;29;20071;-72
2020/12/14 07:05:22;;;;;;;20.92;9.98;;;;;;;2.17;80.73;99813.97;4900640;29;20077;-72
2020/12/14 07:08:06;;;;;;;20.60;9.45;;;;;;;2.65;80.40;99831.59;4900631;29;20053;-72
2020/12/14 07:10:33;;;;;;;26.25;11.00;;;;;;;2.87;79.09;99832.28;4861289;29;20530;-72
2020/12/14 07:13:01;;;;;;;21.90;9.40;;;;;;;2.88;78.75;99844.94;4861221;29;20045;-72
2020/12/14 07:15:38;;;;;;;23.20;9.57;;;;;;;2.79;78.24;99839.59;4861243;29;20057;-71
2020/12/14 07:18:07;;;;;;;21.27;9.90;;;;;;;2.59;78.44;99803.69;4861120;29;20069;-72
2020/12/14 07:20:45;;;;;;;21.55;10.40;;;;;;;2.67;78.48;99835.03;4861087;29;20053;-71
2020/12/14 07:23:14;;;;;;;21.23;10.27;;;;;;;2.54;78.39;99786.72;4861016;29;20465;-72
2020/12/14 07:25:46;;;;;;;21.83;11.38;;;;;;;2.94;77.71;99819.06;4860986;29;20050;-72
2020/12/14 07:28:14;;;;;;;22.75;10.80;;;;;;;3.22;77.34;99824.16;4861078;29;20068;-72
2020/12/14 07:30:43;;;;;;;24.70;10.63;;;;;;;3.22;75.98;99822.50;4860795;29;20551;-72
2020/12/14 07:33:10;;;;;;;22.42;9.95;;;;;;;3.48;75.69;99824.97;4859941;29;20058;-72
2020/12/14 07:35:39;;;;;;;24.67;10.05;;;;;;;3.54;75.30;99800.75;4860905;29;20137;-72
2020/12/14 07:38:11;;;;;;;20.60;10.65;;;;;;;3.83;75.04;99810.03;4860697;29;20174;-72
2020/12/14 07:40:39;;;;;;;24.42;11.43;;;;;;;3.84;74.54;99794.03;4860704;29;20133;-72
2020/12/14 07:43:06;;;;;;;22.83;10.35;;;;;;;4.32;73.32;99842.50;4860680;29;20132;-72
2020/12/14 07:45:34;;;;;;;24.45;10.82;;;;;;;4.37;73.40;99848.53;4860518;29;20132;-72
2020/12/14 07:48:01;;;;;;;21.80;10.40;;;;;;;4.39;73.23;99844.34;4884660;29;20135;-72
2020/12/14 07:50:29;;;;;;;24.58;10.65;;;;;;;4.44;73.44;99857.16;4899680;29;20130;-72
2020/12/14 07:52:58;;;;;;;27.88;11.00;;;;;;;4.14;72.91;99824.34;4900017;29;20055;-72
2020/12/14 07:55:27;;;;;;;24.58;10.40;;;;;;;4.27;73.08;99858.34;4899531;29;20048;-72
2020/12/14 07:57:55;;;;;;;23.50;10.30;;;;;;;4.36;73.03;99856.94;4899594;29;20044;-72
2020/12/14 08:00:24;;;;;;;22.60;9.82;;;;;;;4.39;72.62;99846.06;4899362;29;20132;-72
2020/12/14 08:03:00;;;;;;;21.45;10.25;;;;;;;4.69;72.74;99864.53;4899517;29;20059;-72
2020/12/14 08:05:30;;;;;;;19.83;9.80;;;;;;;4.76;72.47;99868.91;4899492;29;20071;-72
2020/12/14 08:08:01;;;;;;;21.38;10.23;;;;;;;4.79;72.94;99876.59;4899075;29;20037;-72
2020/12/14 08:10:31;;;;;;;22.95;10.30;;;;;;;4.92;72.34;99875.22;4899308;29;20155;-72
2020/12/14 08:12:59;;;;;;;20.85;9.40;;;;;;;4.83;72.66;99864.88;4899315;29;20496;-72
2020/12/14 08:15:29;;;;;;;21.10;9.95;;;;;;;4.81;72.13;99872.41;4899242;29;20045;-72
2020/12/14 08:17:58;;;;;;;25.50;10.52;;;;;;;4.50;72.17;99880.03;4899523;29;20052;-72
2020/12/14 08:20:27;;;;;;;21.70;10.35;;;;;;;4.75;72.09;99885.75;4899480;29;20402;-72
2020/12/14 08:22:56;;;;;;;23.05;10.38;;;;;;;4.95;71.73;99876.16;4897908;29;20095;-72
2020/12/14 08:25:25;;;;;;;21.02;10.32;;;;;;;4.81;71.52;99839.56;4899133;29;20128;-72
2020/12/14 08:27:55;;;;;;;20.08;10.15;;;;;;;5.19;71.46;99884.31;4899424;29;20487;-72
2020/12/14 08:30:23;;;;;;;23.33;10.25;;;;;;;5.20;71.44;99881.00;4898947;29;20056;-72
2020/12/14 08:32:56;;;;;;;24.67;10.60;;;;;;;5.08;71.50;99885.75;4898979;29;20100;-72
2020/12/14 08:35:24;;;;;;;20.95;9.48;;;;;;;5.27;70.98;99876.91;4898928;29;20487;-72
2020/12/14 08:37:52;;;;;;;23.67;10.35;;;;;;;5.10;70.51;99889.16;4899217;29;20047;-72
2020/12/14 08:40:20;;;;;;;21.00;10.23;;;;;;;4.93;70.46;99887.03;4898915;29;20056;-72
2020/12/14 08:42:49;;;;;;;20.98;10.30;;;;;;;4.86;69.85;99870.88;4898851;29;20514;-72
2020/12/14 08:45:18;;;;;;;22.83;10.50;;;;;;;4.89;70.18;99838.06;4898671;29;20072;-72
2020/12/14 08:47:45;;;;;;;21.17;8.95;;;;;;;5.40;70.07;99889.03;4898720;29;20578;-72
2020/12/14 08:50:16;;;;;;;26.10;10.52;;;;;;;5.57;69.38;99891.94;4898769;29;20495;-72
2020/12/14 08:52:44;;;;;;;21.90;9.80;;;;;;;5.68;69.45;99896.44;4898772;29;20056;-72
2020/12/14 08:55:12;;;;;;;21.92;9.95;;;;;;;5.37;69.01;99889.81;4898624;29;20037;-72
2020/12/14 08:57:40;;;;;;;23.20;10.85;;;;;;;5.23;68.63;99873.44;4898628;29;20048;-72
2020/12/14 09:00:09;;;;;;;30.20;13.48;;;;;;;5.42;69.22;99908.47;4898356;29;20063;-72
2020/12/14 09:02:37;;;;;;;;;;;;;;;5.26;69.03;99914.00;4899054;29;20044;-72
2020/12/14 09:05:10;;;;;;;24.17;11.15;;;;;;;5.21;68.92;99909.66;4898844;29;20366;-72
2020/12/14 09:07:38;;;;;;;24.58;10.70;;;;;;;5.01;70.67;99873.78;4897357;29;20052;-72
2020/12/14 09:10:14;;;;;;;23.35;10.68;;;;;;;4.97;70.48;99887.16;4898562;29;20056;-72
2020/12/14 09:12:41;;;;;;;23.48;11.18;;;;;;;4.95;71.21;99908.16;4898498;29;20056;-72
2020/12/14 09:15:10;;;;;;;23.35;10.38;;;;;;;4.79;71.73;99886.69;4898374;29;20495;-71
2020/12/14 09:17:38;;;;;;;23.95;11.02;;;;;;;5.02;72.39;99908.34;4898450;29;20045;-72
2020/12/14 09:20:09;;;;;;;23.35;11.18;;;;;;;4.82;71.81;99875.81;4898459;29;20096;-71
2020/12/14 09:22:51;;;;;;;21.83;10.30;;;;;;;5.05;72.20;99895.78;4897457;29;20053;-72
2020/12/14 09:25:21;;;;;;;20.75;9.88;;;;;;;4.98;71.85;99883.81;4859167;29;20050;-71
2020/12/14 09:28:03;;;;;;;23.90;10.85;;;;;;;5.15;71.73;99907.00;4859138;29;20060;-72
2020/12/14 09:30:34;;;;;;;26.65;11.82;;;;;;;4.94;71.48;99849.16;4822544;29;20565;-72
2020/12/14 09:33:01;;;;;;;24.20;10.43;;;;;;;5.16;71.12;99901.94;4822464;29;20560;-72
2020/12/14 09:35:29;;;;;;;25.13;11.57;;;;;;;5.36;70.89;99907.50;4807291;29;20047;-72
2020/12/14 09:38:00;;;;;;;23.45;11.73;;;;;;;5.29;70.57;99901.44;4822410;29;20581;-72
2020/12/14 09:40:27;;;;;;;26.17;11.45;;;;;;;5.33;70.47;99897.28;4822502;29;20056;-72
2020/12/14 09:42:55;;;;;;;27.17;11.27;;;;;;;5.35;70.56;99883.84;4822548;29;20108;-72
2020/12/14 09:45:23;;;;;;;19.45;9.50;;;;;;;5.28;70.07;99884.53;4822202;29;20051;-72
2020/12/14 09:47:51;;;;;;;20.17;10.02;;;;;;;5.28;69.94;99893.78;4822325;29;20055;-72
2020/12/14 09:50:20;;;;;;;16.42;7.55;;;;;;;4.95;70.27;99896.38;4822276;29;20517;-72
2020/12/14 09:52:47;;;;;;;22.58;10.05;;;;;;;5.25;70.22;99876.91;4822269;29;20118;-72
2020/12/14 09:55:17;;;;;;;22.02;10.23;;;;;;;5.41;70.33;99889.06;4816659;29;20054;-72
2020/12/14 09:57:44;;;;;;;19.67;9.98;;;;;;;5.89;70.09;99896.06;4806554;29;20154;-71
2020/12/14 10:00:13;;;;;;;20.23;9.83;;;;;;;5.95;70.16;99896.22;4807317;29;20062;-71
2020/12/14 10:02:58;;;;;;;16.38;8.90;;;;;;;6.08;69.59;99898.16;4849861;29;20050;-71
2020/12/14 10:05:58;;;;;;;20.02;8.88;;;;;;;6.24;69.20;99889.22;4807744;29;20133;-71
2020/12/14 10:08:26;;;;;;;19.70;9.80;;;;;;;6.46;68.94;99892.16;4821608;29;20046;-72
2020/12/14 10:10:56;;;;;;;20.98;10.10;;;;;;;6.46;68.88;99891.31;4825408;29;20509;-72
2020/12/14 10:13:24;;;;;;;18.48;9.25;;;;;;;6.50;67.80;99891.38;4810343;29;20086;-72
2020/12/14 10:15:51;;;;;;;17.58;9.25;;;;;;;5.85;69.23;99886.72;4825229;29;20175;-71
2020/12/14 10:18:22;;;;;;;22.23;10.15;;;;;;;5.20;70.01;99881.00;4825533;29;20046;-71
2020/12/14 10:20:49;;;;;;;20.70;9.65;;;;;;;5.32;70.67;99876.22;4810090;29;20514;-71
2020/12/14 10:23:17;;;;;;;18.58;9.77;;;;;;;5.30;70.92;99882.88;4825300;29;20055;-71
2020/12/14 10:25:45;;;;;;;16.63;8.98;;;;;;;5.37;70.86;99887.28;4824923;29;20122;-71
2020/12/14 10:28:14;;;;;;;18.63;9.80;;;;;;;5.13;71.07;99886.72;4825154;29;20061;-71
2020/12/14 10:30:41;;;;;;;22.70;9.60;;;;;;;5.00;71.98;99888.91;4824995;29;20099;-72
2020/12/14 10:33:16;;;;;;;17.73;8.88;;;;;;;4.87;71.57;99831.28;4825185;29;20070;-71
2020/12/14 10:35:45;;;;;;;17.65;9.57;;;;;;;5.19;71.12;99880.94;4824921;29;20073;-71
2020/12/14 10:38:15;;;;;;;18.98;9.73;;;;;;;5.25;71.19;99889.53;4824945;29;20054;-71
2020/12/14 10:40:43;;;;;;;18.55;9.05;;;;;;;5.00;71.51;99901.53;4824979;29;20131;-71
2020/12/14 10:43:13;;;;;;;19.75;9.23;;;;;;;4.60;72.09;99823.84;4867126;29;20097;-71
2020/12/14 10:45:41;;;;;;;17.17;9.05;;;;;;;4.99;72.01;99900.69;4900828;29;20045;-71
2020/12/14 10:48:08;;;;;;;18.90;8.30;;;;;;;4.93;72.22;99887.91;4900772;29;20044;-71
2020/12/14 10:50:38;;;;;;;17.80;9.07;;;;;;;5.18;71.35;99891.88;4901070;29;20049;-72
2020/12/14 10:53:07;;;;;;;18.58;9.02;;;;;;;5.31;71.16;99892.19;4900841;29;20045;-72
2020/12/14 10:55:35;;;;;;;18.13;9.07;;;;;;;5.65;70.79;99887.91;4900697;29;20093;-71
2020/12/14 10:58:04;;;;;;;19.17;9.70;;;;;;;5.75;69.84;99883.09;4900821;29;20494;-71
2020/12/14 11:00:32;;;;;;;17.30;9.23;;;;;;;5.95;69.46;99886.09;4900269;29;20048;-72
2020/12/14 11:03:00;;;;;;;20.60;8.48;;;;;;;6.00;69.11;99887.00;4900592;29;20376;-71
2020/12/14 11:05:28;;;;;;;18.67;8.45;;;;;;;6.06;68.64;99887.16;4900583;29;20045;-71
2020/12/14 11:07:56;;;;;;;20.75;9.00;;;;;;;5.72;69.53;99880.47;4900565;29;20132;-71
2020/12/14 11:10:26;;;;;;;;;;;;;;;5.61;69.34;99883.59;4901226;29;20045;-71
2020/12/14 11:12:55;;;;;;;15.70;7.07;;;;;;;5.20;70.41;99888.59;4900501;29;19923;-71
2020/12/14 11:15:23;;;;;;;23.63;11.32;;;;;;;5.05;71.34;99894.94;4900398;29;20053;-71
2020/12/14 11:18:10;;;;;;;16.77;9.73;;;;;;;5.26;71.54;99896.31;4899753;29;20063;-71
2020/12/14 11:20:44;;;;;;;18.00;9.98;;;;;;;5.30;71.42;99882.88;4900391;29;20144;-71
2020/12/14 11:23:12;;;;;;;20.95;10.18;;;;;;;5.18;71.08;99885.13;4900371;29;20562;-71
2020/12/14 11:25:40;;;;;;;17.15;8.55;;;;;;;5.21;70.67;99857.38;4900080;29;20057;-71
2020/12/14 11:28:09;;;;;;;20.10;10.02;;;;;;;5.33;70.77;99888.03;4899574;29;20407;-71
2020/12/14 11:30:37;;;;;;;17.88;8.32;;;;;;;5.16;71.48;99884.25;4900327;29;20052;-71
2020/12/14 11:33:04;;;;;;;16.85;8.95;;;;;;;5.30;71.26;99877.81;4899158;29;20044;-71
2020/12/14 11:35:32;;;;;;;19.15;9.60;;;;;;;5.88;69.59;99889.28;4899953;29;20069;-71
2020/12/14 11:38:00;;;;;;;20.02;8.98;;;;;;;5.26;70.30;99876.06;4900012;29;20044;-71
2020/12/14 11:40:28;;;;;;;18.60;9.70;;;;;;;5.63;69.65;99880.28;4899952;29;20045;-71
2020/12/14 11:42:57;;;;;;;18.33;8.57;;;;;;;7.07;66.12;99893.25;4899926;29;20499;-71